Time;durP1;ratioP1;P1;durP2;ratioP2;P2;SDS_P1;SDS_P2;PMS_P1;PMS_P2;Temp;Humidity;BMP_temperature;BMP_pressure;BME280_temperature;BME280_humidity;BME280_pressure;Samples;Min_cycle;Max_cycle;Signal;HPM_P1;HPM_P2
2021/12/20 00:01:19;;;;;;;5.38;2.30;;;;;;;;;;5090548;28;20097;-73
2021/12/20 00:03:46;;;;;;;4.95;2.25;;;;;;;;;;5090921;28;20051;-74
2021/12/20 00:06:12;;;;;;;7.20;2.25;;;;;;;;;;5091838;28;20395;-74
2021/12/20 00:08:38;;;;;;;5.13;2.00;;;;;;;;;;5073930;28;20401;-74
2021/12/20 00:11:07;;;;;;;10.52;2.20;;;;;;;;;;5090085;28;20048;-74
2021/12/20 00:13:33;;;;;;;;;;;;;;;;;;5091412;28;20091;-74
2021/12/20 00:15:59;;;;;;;5.57;2.00;;;;;;;;;;5090430;28;19971;-74
2021/12/20 00:18:25;;;;;;;6.82;2.22;;;;;;;;;;5091491;28;20048;-74
2021/12/20 00:20:51;;;;;;;6.55;1.88;;;;;;;;;;5091712;28;20051;-74
2021/12/20 00:23:18;;;;;;;5.40;2.20;;;;;;;;;;5090591;28;20056;-74
2021/12/20 00:25:48;;;;;;;8.90;2.03;;;;;;;;;;5090631;28;20046;-75
2021/12/20 00:28:14;;;;;;;4.63;2.10;;;;;;;;;;5090333;28;20417;-74
2021/12/20 00:30:40;;;;;;;5.28;2.10;;;;;;;;;;5090294;28;20047;-74
2021/12/20 00:33:06;;;;;;;6.15;1.92;;;;;;;;;;5090091;28;20044;-74
2021/12/20 00:35:33;;;;;;;6.78;2.45;;;;;;;;;;5091200;28;20047;-74
2021/12/20 00:40:43;;;;;;;6.10;2.38;;;;;;;;;;5090924;28;20055;-75
2021/12/20 00:43:09;;;;;;;6.80;2.05;;;;;;;;;;5073295;28;20044;-75
2021/12/20 00:45:37;;;;;;;4.40;2.00;;;;;;;;;;5090022;28;20048;-75
2021/12/20 00:48:03;;;;;;;6.93;2.10;;;;;;;;;;5072711;28;20409;-75
2021/12/20 00:50:30;;;;;;;5.47;2.05;;;;;;;;;;5090791;28;20494;-75
2021/12/20 00:52:56;;;;;;;5.05;1.95;;;;;;;;;;5091232;28;20050;-75
2021/12/20 00:55:23;;;;;;;6.55;1.98;;;;;;;;;;5091217;28;20083;-75
2021/12/20 00:57:50;;;;;;;4.68;1.70;;;;;;;;;;5090642;28;20048;-75
2021/12/20 01:00:18;;;;;;;5.32;1.73;;;;;;;;;;5090430;28;20405;-75
2021/12/20 01:02:44;;;;;;;4.40;1.45;;;;;;;;;;5090722;28;20482;-75
2021/12/20 01:05:10;;;;;;;6.78;2.03;;;;;;;;;;5089405;28;20490;-74
2021/12/20 01:07:36;;;;;;;5.13;2.00;;;;;;;;;;5089560;28;20144;-74
2021/12/20 01:10:06;;;;;;;4.00;1.90;;;;;;;;;;5090197;28;20452;-74
2021/12/20 01:12:42;;;;;;;5.90;1.83;;;;;;;;;;5089787;28;20052;-74
2021/12/20 01:15:09;;;;;;;3.80;1.60;;;;;;;;;;5072208;28;20062;-74
2021/12/20 01:17:35;;;;;;;4.65;1.75;;;;;;;;;;5090757;28;20426;-74
2021/12/20 01:20:01;;;;;;;4.50;1.80;;;;;;;;;;5088818;28;20044;-76
2021/12/20 01:22:27;;;;;;;4.63;1.83;;;;;;;;;;5089471;28;20062;-76
2021/12/20 01:24:53;;;;;;;4.68;1.98;;;;;;;;;;5091130;28;20048;-75
2021/12/20 01:27:19;;;;;;;6.35;1.75;;;;;;;;;;5090478;28;20040;-75
2021/12/20 01:29:45;;;;;;;5.20;1.55;;;;;;;;;;5089883;28;20097;-75
2021/12/20 01:32:12;;;;;;;4.72;1.65;;;;;;;;;;5089919;28;20380;-75
2021/12/20 01:34:38;;;;;;;6.72;2.00;;;;;;;;;;5089714;28;20053;-75
2021/12/20 01:37:04;;;;;;;7.82;1.98;;;;;;;;;;5090794;28;20055;-75
2021/12/20 01:39:30;;;;;;;5.13;2.22;;;;;;;;;;5089366;28;20083;-75
2021/12/20 01:41:58;;;;;;;3.97;1.60;;;;;;;;;;5089047;28;20475;-75
2021/12/20 01:44:24;;;;;;;5.40;2.40;;;;;;;;;;5089492;28;20452;-75
2021/12/20 01:46:50;;;;;;;6.28;1.73;;;;;;;;;;5089464;28;20110;-77
2021/12/20 01:49:17;;;;;;;4.50;1.70;;;;;;;;;;5090148;28;20063;-77
2021/12/20 01:52:03;;;;;;;6.93;1.60;;;;;;;;;;5090617;28;20051;-77
2021/12/20 01:54:29;;;;;;;4.68;1.52;;;;;;;;;;5089182;28;20052;-77
2021/12/20 01:56:55;;;;;;;3.90;1.52;;;;;;;;;;5090207;28;20044;-74
2021/12/20 01:59:21;;;;;;;4.78;1.70;;;;;;;;;;5088963;28;20517;-73
2021/12/20 02:01:47;;;;;;;6.95;2.20;;;;;;;;;;5090313;28;20044;-73
2021/12/20 02:04:14;;;;;;;6.78;1.85;;;;;;;;;;5090410;28;20051;-77
2021/12/20 02:06:44;;;;;;;9.57;1.92;;;;;;;;;;5089745;28;20064;-76
2021/12/20 02:09:12;;;;;;;6.93;1.60;;;;;;;;;;5071924;28;20040;-76
2021/12/20 02:11:39;;;;;;;4.65;1.73;;;;;;;;;;5088411;28;20414;-76
2021/12/20 02:14:06;;;;;;;4.82;1.40;;;;;;;;;;5090061;28;20200;-76
2021/12/20 02:16:32;;;;;;;4.88;1.70;;;;;;;;;;5089832;28;20081;-78
2021/12/20 02:19:03;;;;;;;6.30;1.67;;;;;;;;;;5090122;28;20059;-79
2021/12/20 02:21:29;;;;;;;11.50;1.90;;;;;;;;;;5089396;28;20043;-78
2021/12/20 02:23:55;;;;;;;9.13;2.05;;;;;;;;;;5088699;28;20537;-77
2021/12/20 02:26:23;;;;;;;5.30;1.85;;;;;;;;;;5087897;28;20517;-77
2021/12/20 02:28:51;;;;;;;5.18;1.80;;;;;;;;;;5089843;28;20048;-77
2021/12/20 02:38:57;;;;;;;4.00;1.67;;;;;;;;;;5089704;28;20048;-75
2021/12/20 02:41:28;;;;;;;5.38;1.77;;;;;;;;;;5089531;28;20513;-75
2021/12/20 02:43:57;;;;;;;4.32;1.40;;;;;;;;;;5089667;28;20044;-75
2021/12/20 02:49:04;;;;;;;7.20;1.67;;;;;;;;;;5087233;28;20140;-74
2021/12/20 02:51:30;;;;;;;5.43;1.40;;;;;;;;;;5088944;28;20076;-74
2021/12/20 02:53:57;;;;;;;3.65;1.35;;;;;;;;;;5071341;28;20402;-75
2021/12/20 02:56:23;;;;;;;5.32;1.88;;;;;;;;;;5087649;28;20036;-74
2021/12/20 02:58:49;;;;;;;3.47;1.52;;;;;;;;;;5088687;28;20633;-75
2021/12/20 03:01:16;;;;;;;12.82;2.17;;;;;;;;;;5070155;28;20044;-76
2021/12/20 03:03:43;;;;;;;6.25;1.58;;;;;;;;;;5087470;28;20083;-76
2021/12/20 03:06:09;;;;;;;6.95;1.40;;;;;;;;;;5087680;28;20047;-76
2021/12/20 03:08:35;;;;;;;3.03;1.30;;;;;;;;;;5088649;28;20131;-76
2021/12/20 03:11:01;;;;;;;5.13;1.20;;;;;;;;;;5087040;28;20059;-75
2021/12/20 03:13:27;;;;;;;6.45;1.48;;;;;;;;;;5088170;28;20063;-75
2021/12/20 03:15:53;;;;;;;6.68;1.90;;;;;;;;;;5088765;28;20135;-75
2021/12/20 03:18:19;;;;;;;6.88;1.70;;;;;;;;;;5087784;28;20632;-75
2021/12/20 03:20:45;;;;;;;3.65;1.40;;;;;;;;;;5087716;28;20513;-75
2021/12/20 03:23:11;;;;;;;3.47;1.45;;;;;;;;;;5071141;28;20044;-75
2021/12/20 03:25:37;;;;;;;6.03;1.60;;;;;;;;;;5088020;28;20137;-75
2021/12/20 03:28:04;;;;;;;4.47;1.42;;;;;;;;;;5089511;28;20044;-75
2021/12/20 03:30:30;;;;;;;6.10;1.40;;;;;;;;;;5088860;28;20060;-75
2021/12/20 03:32:56;;;;;;;4.65;1.50;;;;;;;;;;5090560;28;20036;-75
2021/12/20 03:35:22;;;;;;;4.63;1.35;;;;;;;;;;5093062;28;20044;-75
2021/12/20 03:37:48;;;;;;;5.18;1.98;;;;;;;;;;5092364;28;20190;-76
2021/12/20 03:40:14;;;;;;;4.68;1.30;;;;;;;;;;5091588;28;20521;-76
2021/12/20 03:42:43;;;;;;;3.30;1.20;;;;;;;;;;5091296;28;20044;-76
2021/12/20 03:45:12;;;;;;;3.70;1.00;;;;;;;;;;5091705;28;20165;-76
2021/12/20 03:47:38;;;;;;;;;;;;;;;;;;5093346;28;20433;-75
2021/12/20 03:50:05;;;;;;;3.90;1.30;;;;;;;;;;5092893;28;20431;-75
2021/12/20 03:52:31;;;;;;;4.82;1.52;;;;;;;;;;5091394;28;20414;-75
2021/12/20 03:54:57;;;;;;;4.32;1.20;;;;;;;;;;5091531;28;20071;-75
2021/12/20 03:57:23;;;;;;;3.55;1.20;;;;;;;;;;5092831;28;20048;-75
2021/12/20 03:59:49;;;;;;;3.80;1.27;;;;;;;;;;5073534;28;20048;-76
2021/12/20 04:02:18;;;;;;;4.47;1.25;;;;;;;;;;5090966;28;20055;-76
2021/12/20 04:04:44;;;;;;;3.88;1.20;;;;;;;;;;5091112;28;20062;-76
2021/12/20 04:07:10;;;;;;;5.22;1.42;;;;;;;;;;5090482;28;20520;-76
2021/12/20 04:09:37;;;;;;;3.22;1.10;;;;;;;;;;5073542;28;20040;-76
2021/12/20 04:12:03;;;;;;;3.60;0.90;;;;;;;;;;5090513;28;20056;-77
2021/12/20 04:14:29;;;;;;;3.88;1.35;;;;;;;;;;5091746;28;20512;-77
2021/12/20 04:16:55;;;;;;;4.57;1.35;;;;;;;;;;5090873;28;20044;-76
2021/12/20 04:19:21;;;;;;;2.88;1.20;;;;;;;;;;5072975;28;20113;-77
2021/12/20 04:21:47;;;;;;;2.80;1.10;;;;;;;;;;5091483;28;20044;-77
2021/12/20 04:24:13;;;;;;;4.90;1.30;;;;;;;;;;5090230;28;20490;-77
2021/12/20 04:26:39;;;;;;;4.95;1.13;;;;;;;;;;5091372;28;20066;-76
2021/12/20 04:29:05;;;;;;;4.50;1.20;;;;;;;;;;5090706;28;20047;-76
2021/12/20 04:31:33;;;;;;;2.92;1.00;;;;;;;;;;5089509;28;20132;-76
2021/12/20 04:33:59;;;;;;;3.22;1.00;;;;;;;;;;5090292;28;20043;-77
2021/12/20 04:36:26;;;;;;;3.75;1.10;;;;;;;;;;5090141;28;20069;-76
2021/12/20 04:38:52;;;;;;;3.88;1.38;;;;;;;;;;5072462;28;20475;-77
2021/12/20 04:41:18;;;;;;;3.40;0.98;;;;;;;;;;5090070;28;20576;-77
2021/12/20 04:43:44;;;;;;;2.70;1.10;;;;;;;;;;5072507;28;20111;-77
2021/12/20 04:46:10;;;;;;;1.88;0.90;;;;;;;;;;5073022;28;20040;-77
2021/12/20 04:48:36;;;;;;;2.08;1.05;;;;;;;;;;5073383;28;20097;-75
2021/12/20 04:51:02;;;;;;;1.83;0.80;;;;;;;;;;5089738;28;20111;-74
2021/12/20 04:53:28;;;;;;;2.97;1.10;;;;;;;;;;5091722;28;20048;-75
2021/12/20 04:55:54;;;;;;;2.83;1.05;;;;;;;;;;5090021;28;20047;-77
2021/12/20 04:58:20;;;;;;;4.57;1.02;;;;;;;;;;5091572;28;20417;-76
2021/12/20 05:00:47;;;;;;;2.75;1.00;;;;;;;;;;5090354;28;20409;-76
2021/12/20 05:03:13;;;;;;;2.97;1.10;;;;;;;;;;5090528;28;20448;-76
2021/12/20 05:05:39;;;;;;;4.72;1.10;;;;;;;;;;5089846;28;20055;-76
2021/12/20 05:08:05;;;;;;;3.30;1.33;;;;;;;;;;5090359;28;20415;-76
2021/12/20 05:10:37;;;;;;;2.50;1.10;;;;;;;;;;5091121;28;20070;-76
2021/12/20 05:13:05;;;;;;;3.15;1.10;;;;;;;;;;5090100;28;20056;-76
2021/12/20 05:15:31;;;;;;;3.83;1.00;;;;;;;;;;5089635;28;20089;-76
2021/12/20 05:17:58;;;;;;;2.85;1.10;;;;;;;;;;5089761;28;20055;-75
2021/12/20 05:20:24;;;;;;;2.45;1.00;;;;;;;;;;5091437;28;20047;-75
2021/12/20 05:22:51;;;;;;;2.17;1.10;;;;;;;;;;5090823;28;20097;-75
2021/12/20 05:25:17;;;;;;;3.45;1.30;;;;;;;;;;5073110;28;20059;-75
2021/12/20 05:27:43;;;;;;;4.72;1.20;;;;;;;;;;5090865;28;20047;-75
2021/12/20 05:30:10;;;;;;;3.45;1.60;;;;;;;;;;5089442;28;20420;-75
2021/12/20 05:32:37;;;;;;;2.70;1.00;;;;;;;;;;5090297;28;20490;-75
2021/12/20 05:35:04;;;;;;;3.13;1.50;;;;;;;;;;5089896;28;20048;-75
2021/12/20 05:37:30;;;;;;;3.80;1.02;;;;;;;;;;5072650;28;20051;-75
2021/12/20 05:39:56;;;;;;;2.95;1.10;;;;;;;;;;5089539;28;20052;-75
2021/12/20 05:42:22;;;;;;;3.42;1.17;;;;;;;;;;5072347;28;20040;-74
2021/12/20 05:44:50;;;;;;;3.25;1.20;;;;;;;;;;5089222;28;20127;-78
2021/12/20 05:47:17;;;;;;;8.00;1.10;;;;;;;;;;5089162;28;20177;-76
2021/12/20 05:49:43;;;;;;;10.75;1.30;;;;;;;;;;5088853;28;20047;-77
2021/12/20 05:52:09;;;;;;;4.43;0.90;;;;;;;;;;5088980;28;20485;-76
2021/12/20 05:54:35;;;;;;;4.60;1.10;;;;;;;;;;5090187;28;20082;-76
2021/12/20 05:57:01;;;;;;;3.53;0.90;;;;;;;;;;5090330;28;20501;-76
2021/12/20 05:59:27;;;;;;;5.20;1.25;;;;;;;;;;5072139;28;20456;-76
2021/12/20 06:01:53;;;;;;;6.60;1.05;;;;;;;;;;5088721;28;20044;-76
2021/12/20 06:04:19;;;;;;;2.55;1.00;;;;;;;;;;5088800;28;20040;-74
2021/12/20 06:06:46;;;;;;;4.07;1.10;;;;;;;;;;5090225;28;20497;-75
2021/12/20 06:09:12;;;;;;;2.70;1.27;;;;;;;;;;5072249;28;20044;-75
2021/12/20 06:11:38;;;;;;;5.80;1.05;;;;;;;;;;5071826;28;20067;-76
2021/12/20 06:14:04;;;;;;;3.60;0.90;;;;;;;;;;5088954;28;20051;-75
2021/12/20 06:16:30;;;;;;;5.30;1.77;;;;;;;;;;5088668;28;20044;-76
2021/12/20 06:18:56;;;;;;;2.85;0.88;;;;;;;;;;5089815;28;20044;-76
2021/12/20 06:21:23;;;;;;;2.50;1.00;;;;;;;;;;5090032;28;20093;-76
2021/12/20 06:23:49;;;;;;;4.10;1.20;;;;;;;;;;5071845;28;20051;-75
2021/12/20 06:26:16;;;;;;;3.20;0.85;;;;;;;;;;5089796;28;20127;-75
2021/12/20 06:28:42;;;;;;;3.85;1.00;;;;;;;;;;5089775;28;20051;-75
2021/12/20 06:31:08;;;;;;;2.28;0.80;;;;;;;;;;5071953;28;20081;-75
2021/12/20 06:33:34;;;;;;;3.00;0.82;;;;;;;;;;5089755;28;20056;-75
2021/12/20 06:36:00;;;;;;;2.58;1.00;;;;;;;;;;5089277;28;20079;-74
2021/12/20 06:38:26;;;;;;;2.45;0.85;;;;;;;;;;5089450;28;20104;-73
2021/12/20 06:40:53;;;;;;;3.90;0.90;;;;;;;;;;5089963;28;20048;-72
2021/12/20 06:43:20;;;;;;;5.00;0.98;;;;;;;;;;5089666;28;20134;-72
2021/12/20 06:45:46;;;;;;;5.25;1.13;;;;;;;;;;5089510;28;20036;-76
2021/12/20 06:48:13;;;;;;;5.97;1.58;;;;;;;;;;5089530;28;20051;-76
2021/12/20 06:50:39;;;;;;;4.40;0.63;;;;;;;;;;5089213;28;20051;-76
2021/12/20 06:53:06;;;;;;;3.72;0.98;;;;;;;;;;5088399;28;20044;-81
2021/12/20 06:55:32;;;;;;;4.03;1.08;;;;;;;;;;5089415;28;20040;-83
2021/12/20 06:57:58;;;;;;;4.97;1.00;;;;;;;;;;5088363;28;20040;-77
2021/12/20 07:00:26;;;;;;;3.85;1.35;;;;;;;;;;5088572;28;20048;-76
2021/12/20 07:02:53;;;;;;;3.22;1.20;;;;;;;;;;5089462;28;20048;-76
2021/12/20 07:05:19;;;;;;;2.92;1.02;;;;;;;;;;5089286;28;20044;-77
2021/12/20 07:07:45;;;;;;;4.45;1.00;;;;;;;;;;5088987;28;20044;-77
2021/12/20 07:10:11;;;;;;;2.92;0.70;;;;;;;;;;5070911;28;20055;-76
2021/12/20 07:12:38;;;;;;;3.05;1.10;;;;;;;;;;5071146;28;20135;-76
2021/12/20 07:15:05;;;;;;;2.03;0.82;;;;;;;;;;5088816;28;20077;-76
2021/12/20 07:17:31;;;;;;;3.50;0.95;;;;;;;;;;5089361;28;20410;-77
2021/12/20 07:20:00;;;;;;;4.80;1.25;;;;;;;;;;5089053;28;20117;-76
2021/12/20 07:22:26;;;;;;;2.22;0.70;;;;;;;;;;5087849;28;20131;-76
2021/12/20 07:24:52;;;;;;;2.92;0.75;;;;;;;;;;5087556;28;20040;-76
2021/12/20 07:27:19;;;;;;;3.80;0.95;;;;;;;;;;5089055;28;20048;-77
2021/12/20 07:29:45;;;;;;;16.00;1.10;;;;;;;;;;5089300;28;20127;-76
2021/12/20 07:32:12;;;;;;;3.75;1.05;;;;;;;;;;5089358;28;20523;-76
2021/12/20 07:34:38;;;;;;;4.72;1.13;;;;;;;;;;5087671;28;20063;-76
2021/12/20 07:37:05;;;;;;;6.07;1.00;;;;;;;;;;5088682;28;20051;-76
2021/12/20 07:39:32;;;;;;;3.33;0.93;;;;;;;;;;5087564;28;20052;-76
2021/12/20 07:41:59;;;;;;;2.97;0.90;;;;;;;;;;5088978;28;20397;-76
2021/12/20 07:44:25;;;;;;;3.90;1.05;;;;;;;;;;5088740;28;20417;-76
2021/12/20 07:46:51;;;;;;;4.68;1.27;;;;;;;;;;5087617;28;20054;-74
2021/12/20 07:49:17;;;;;;;2.67;0.90;;;;;;;;;;5089273;28;20051;-76
2021/12/20 07:51:44;;;;;;;4.35;0.82;;;;;;;;;;5087886;28;20436;-75
2021/12/20 07:54:10;;;;;;;5.68;1.30;;;;;;;;;;5088456;28;20048;-75
2021/12/20 07:56:36;;;;;;;4.00;1.02;;;;;;;;;;5088741;28;20309;-76
2021/12/20 07:59:02;;;;;;;3.35;1.13;;;;;;;;;;5088834;28;20456;-76
2021/12/20 08:01:28;;;;;;;3.08;1.00;;;;;;;;;;5087360;28;20055;-75
2021/12/20 08:03:54;;;;;;;4.38;0.80;;;;;;;;;;5088096;28;20577;-76
2021/12/20 08:06:21;;;;;;;2.40;0.98;;;;;;;;;;5087610;28;20075;-75
2021/12/20 08:08:47;;;;;;;4.25;0.90;;;;;;;;;;5087565;28;20036;-76
2021/12/20 08:11:13;;;;;;;3.08;0.75;;;;;;;;;;5087331;28;20064;-76
2021/12/20 08:13:44;;;;;;;2.10;1.00;;;;;;;;;;5088819;28;20517;-73
2021/12/20 08:16:19;;;;;;;5.55;0.90;;;;;;;;;;5088446;28;20413;-74
2021/12/20 08:18:46;;;;;;;4.20;0.90;;;;;;;;;;5088387;28;20108;-75
2021/12/20 08:21:14;;;;;;;3.78;0.80;;;;;;;;;;5090519;28;20127;-75
2021/12/20 08:23:40;;;;;;;7.57;1.15;;;;;;;;;;5089931;28;20054;-76
2021/12/20 08:26:07;;;;;;;2.30;0.90;;;;;;;;;;5090568;28;20581;-75
2021/12/20 08:28:35;;;;;;;2.63;0.73;;;;;;;;;;5090773;28;20047;-75
2021/12/20 08:31:02;;;;;;;2.22;0.80;;;;;;;;;;5090236;28;20101;-76
2021/12/20 08:33:28;;;;;;;2.17;0.70;;;;;;;;;;5091453;28;20532;-75
2021/12/20 08:35:54;;;;;;;2.15;0.90;;;;;;;;;;5089841;28;20234;-75
2021/12/20 08:38:20;;;;;;;3.72;0.80;;;;;;;;;;5091343;28;20169;-75
2021/12/20 08:40:47;;;;;;;3.35;0.80;;;;;;;;;;5091526;28;20091;-75
2021/12/20 08:43:14;;;;;;;2.53;0.95;;;;;;;;;;5091381;28;20040;-73
2021/12/20 08:45:40;;;;;;;3.05;1.00;;;;;;;;;;5089818;28;20043;-74
2021/12/20 08:48:06;;;;;;;4.30;0.80;;;;;;;;;;5089810;28;20129;-79
2021/12/20 08:50:33;;;;;;;8.70;1.17;;;;;;;;;;5091010;28;20075;-77
2021/12/20 08:52:59;;;;;;;11.38;1.88;;;;;;;;;;5089915;28;20048;-79
2021/12/20 08:55:25;;;;;;;7.20;1.60;;;;;;;;;;5091266;28;20059;-78
2021/12/20 08:57:52;;;;;;;8.32;1.67;;;;;;;;;;5073214;28;20576;-77
2021/12/20 09:00:20;;;;;;;10.35;1.50;;;;;;;;;;5089457;28;20421;-76
2021/12/20 09:02:46;;;;;;;7.75;1.40;;;;;;;;;;5091548;28;20048;-78
2021/12/20 09:05:13;;;;;;;5.00;1.30;;;;;;;;;;5089221;28;20088;-76
2021/12/20 09:07:41;;;;;;;6.30;1.65;;;;;;;;;;5089633;28;20470;-78
2021/12/20 09:10:08;;;;;;;7.00;1.60;;;;;;;;;;5088827;28;20122;-77
2021/12/20 09:12:36;;;;;;;5.78;1.95;;;;;;;;;;5072438;28;20101;-77
2021/12/20 09:15:02;;;;;;;3.78;1.55;;;;;;;;;;5090134;28;20413;-80
2021/12/20 09:17:28;;;;;;;4.07;1.50;;;;;;;;;;5072523;28;20490;-78
2021/12/20 09:19:54;;;;;;;4.85;1.38;;;;;;;;;;5072354;28;20117;-78
2021/12/20 09:22:26;;;;;;;5.20;1.30;;;;;;;;;;5089766;28;20413;-74
2021/12/20 09:24:52;;;;;;;7.13;1.65;;;;;;;;;;5072354;28;20569;-76
2021/12/20 09:27:18;;;;;;;3.78;1.40;;;;;;;;;;5088822;28;20052;-77
2021/12/20 09:29:44;;;;;;;6.28;1.90;;;;;;;;;;5089273;28;20043;-77
2021/12/20 09:32:10;;;;;;;3.60;1.48;;;;;;;;;;5088992;28;20511;-78
2021/12/20 09:34:37;;;;;;;4.00;1.52;;;;;;;;;;5089301;28;20047;-77
2021/12/20 09:37:06;;;;;;;5.80;1.80;;;;;;;;;;5088705;28;20052;-78
2021/12/20 09:39:33;;;;;;;3.00;1.48;;;;;;;;;;5078120;28;20108;-76
2021/12/20 09:42:00;;;;;;;5.78;1.75;;;;;;;;;;5072151;28;20105;-75
2021/12/20 09:44:27;;;;;;;4.38;1.75;;;;;;;;;;5072381;28;20056;-77
2021/12/20 09:46:55;;;;;;;3.40;1.50;;;;;;;;;;5071706;28;20036;-76
2021/12/20 09:49:21;;;;;;;4.75;1.60;;;;;;;;;;5090516;28;20066;-76
2021/12/20 09:51:48;;;;;;;5.43;2.13;;;;;;;;;;5089122;28;20120;-75
2021/12/20 09:54:14;;;;;;;5.55;1.70;;;;;;;;;;5089021;28;20051;-76
2021/12/20 09:56:40;;;;;;;4.80;1.83;;;;;;;;;;5089638;28;20043;-78
2021/12/20 09:59:09;;;;;;;6.10;2.08;;;;;;;;;;5071810;28;20048;-78
2021/12/20 10:01:38;;;;;;;4.28;1.85;;;;;;;;;;5089411;28;20054;-78
2021/12/20 10:04:04;;;;;;;6.18;2.00;;;;;;;;;;5083807;28;20118;-76
2021/12/20 10:06:31;;;;;;;5.65;1.65;;;;;;;;;;5089874;28;20079;-77
2021/12/20 10:09:04;;;;;;;6.75;2.30;;;;;;;;;;5070584;28;20501;-76
2021/12/20 10:11:31;;;;;;;6.60;2.35;;;;;;;;;;5084450;28;20052;-76
2021/12/20 10:14:17;;;;;;;5.63;2.20;;;;;;;;;;5088541;28;20044;-77
2021/12/20 10:16:46;;;;;;;5.05;2.20;;;;;;;;;;5087988;28;20055;-76
2021/12/20 10:19:30;;;;;;;5.78;2.30;;;;;;;;;;5089795;28;20467;-76
2021/12/20 10:21:58;;;;;;;5.22;2.53;;;;;;;;;;5089946;28;20127;-76
2021/12/20 10:24:35;;;;;;;6.00;2.30;;;;;;;;;;5089351;28;20047;-76
2021/12/20 10:27:01;;;;;;;7.03;2.55;;;;;;;;;;5069074;28;20044;-75
2021/12/20 10:29:27;;;;;;;5.78;2.60;;;;;;;;;;5068125;28;20045;-77
2021/12/20 10:31:54;;;;;;;4.50;2.47;;;;;;;;;;5067644;28;20443;-73
2021/12/20 10:34:29;;;;;;;7.20;2.17;;;;;;;;;;5068178;28;20045;-77
2021/12/20 10:36:57;;;;;;;7.47;2.63;;;;;;;;;;5067744;28;20044;-76
2021/12/20 10:39:37;;;;;;;22.45;3.50;;;;;;;;;;5069733;28;20340;-76
2021/12/20 10:42:33;;;;;;;12.32;2.70;;;;;;;;;;5070769;28;20050;-78
2021/12/20 10:45:12;;;;;;;12.75;2.38;;;;;;;;;;5079651;28;20729;-77
2021/12/20 10:47:38;;;;;;;7.25;2.78;;;;;;;;;;5087588;28;20064;-78
2021/12/20 10:50:23;;;;;;;15.40;3.38;;;;;;;;;;5088323;28;20383;-77
2021/12/20 10:52:49;;;;;;;10.95;3.33;;;;;;;;;;5070361;28;20320;-76
2021/12/20 10:55:34;;;;;;;10.32;3.25;;;;;;;;;;5088412;28;20059;-74
2021/12/20 10:58:16;;;;;;;11.75;3.83;;;;;;;;;;5071310;28;20489;-77
2021/12/20 11:00:44;;;;;;;13.80;3.03;;;;;;;;;;5088280;28;20097;-77
2021/12/20 11:06:06;;;;;;;15.68;3.67;;;;;;;;;;5086906;28;20048;-78
2021/12/20 11:11:22;;;;;;;10.10;3.40;;;;;;;;;;5086824;28;20056;-77
2021/12/20 11:13:48;;;;;;;10.70;3.23;;;;;;;;;;5070704;28;20064;-77
2021/12/20 11:16:33;;;;;;;9.70;3.10;;;;;;;;;;5070998;28;20048;-78
2021/12/20 11:19:19;;;;;;;10.93;3.53;;;;;;;;;;5087012;28;20486;-78
2021/12/20 11:21:46;;;;;;;12.07;3.35;;;;;;;;;;5070795;28;20051;-78
2021/12/20 11:24:20;;;;;;;14.45;3.65;;;;;;;;;;5087029;28;20086;-77
2021/12/20 11:26:47;;;;;;;7.75;2.90;;;;;;;;;;5070259;28;20040;-76
2021/12/20 11:29:13;;;;;;;10.80;2.85;;;;;;;;;;5087480;28;20052;-77
2021/12/20 11:31:39;;;;;;;8.55;3.00;;;;;;;;;;5070809;28;20385;-77
2021/12/20 11:34:06;;;;;;;8.70;3.28;;;;;;;;;;5070666;28;20040;-77
2021/12/20 11:36:33;;;;;;;8.32;3.10;;;;;;;;;;5088783;28;20055;-78
2021/12/20 11:39:03;;;;;;;6.35;2.72;;;;;;;;;;5072110;28;20047;-78
2021/12/20 11:41:29;;;;;;;9.05;2.70;;;;;;;;;;5070696;28;20048;-78
2021/12/20 11:43:56;;;;;;;8.00;3.15;;;;;;;;;;5088674;28;20044;-78
2021/12/20 11:46:24;;;;;;;8.15;2.60;;;;;;;;;;5087573;28;20093;-77
2021/12/20 11:48:53;;;;;;;6.53;3.03;;;;;;;;;;5088128;28;20402;-78
2021/12/20 11:51:22;;;;;;;6.40;3.17;;;;;;;;;;5071097;28;20524;-78
2021/12/20 11:53:51;;;;;;;7.03;2.88;;;;;;;;;;5090088;28;20106;-77
2021/12/20 11:56:20;;;;;;;5.00;2.47;;;;;;;;;;5075306;28;20409;-78
2021/12/20 11:58:48;;;;;;;7.05;2.72;;;;;;;;;;5091775;28;20067;-79
2021/12/20 12:01:19;;;;;;;8.20;2.90;;;;;;;;;;5073869;28;20044;-72
2021/12/20 12:03:57;;;;;;;8.43;2.83;;;;;;;;;;5074256;28;20115;-77
2021/12/20 12:06:25;;;;;;;7.25;2.90;;;;;;;;;;5092001;28;20421;-74
2021/12/20 12:08:52;;;;;;;14.88;3.20;;;;;;;;;;5092939;28;20052;-75
2021/12/20 12:11:19;;;;;;;9.80;3.00;;;;;;;;;;5090683;28;20552;-76
2021/12/20 12:14:00;;;;;;;7.55;3.05;;;;;;;;;;5073434;28;20119;-75
2021/12/20 12:16:47;;;;;;;7.63;3.08;;;;;;;;;;5090752;28;20048;-76
2021/12/20 12:19:13;;;;;;;6.75;2.50;;;;;;;;;;5091279;28;20604;-76
2021/12/20 12:21:40;;;;;;;6.80;2.47;;;;;;;;;;5073091;28;20121;-77
2021/12/20 12:24:10;;;;;;;7.85;2.83;;;;;;;;;;5073568;28;20048;-76
2021/12/20 12:26:37;;;;;;;6.20;2.72;;;;;;;;;;5091264;28;20081;-77
2021/12/20 12:29:04;;;;;;;6.38;3.13;;;;;;;;;;5073095;28;20036;-75
2021/12/20 12:31:49;;;;;;;7.80;2.67;;;;;;;;;;5091417;28;20044;-76
2021/12/20 12:34:16;;;;;;;7.47;2.97;;;;;;;;;;5091568;28;20052;-76
2021/12/20 12:36:43;;;;;;;9.30;2.85;;;;;;;;;;5090122;28;20505;-76
2021/12/20 12:39:09;;;;;;;5.93;2.50;;;;;;;;;;5089725;28;20044;-76
2021/12/20 12:41:46;;;;;;;6.00;2.67;;;;;;;;;;5091274;28;20044;-73
2021/12/20 12:44:21;;;;;;;6.80;2.67;;;;;;;;;;5091225;28;20078;-74
2021/12/20 12:46:48;;;;;;;5.32;2.47;;;;;;;;;;5090954;28;20055;-74
2021/12/20 12:49:23;;;;;;;7.22;3.10;;;;;;;;;;5090401;28;20068;-75
2021/12/20 12:51:49;;;;;;;6.70;2.40;;;;;;;;;;5090932;28;20047;-76
2021/12/20 12:54:33;;;;;;;6.60;2.65;;;;;;;;;;5073139;28;20093;-77
2021/12/20 12:57:12;;;;;;;7.75;2.53;;;;;;;;;;5073288;28;20063;-74
2021/12/20 12:59:41;;;;;;;8.75;2.60;;;;;;;;;;5089505;28;20101;-73
2021/12/20 13:02:11;;;;;;;6.75;2.95;;;;;;;;;;5091299;28;20052;-75
2021/12/20 13:04:48;;;;;;;7.38;2.80;;;;;;;;;;5089446;28;20044;-76
2021/12/20 13:07:34;;;;;;;7.30;2.83;;;;;;;;;;5090887;28;20129;-80
2021/12/20 13:10:03;;;;;;;6.40;2.50;;;;;;;;;;5091114;28;20051;-76
2021/12/20 13:15:10;;;;;;;4.53;2.13;;;;;;;;;;5091189;28;20052;-77
2021/12/20 13:17:38;;;;;;;6.20;2.30;;;;;;;;;;5089748;28;20405;-76
2021/12/20 13:20:11;;;;;;;6.07;2.28;;;;;;;;;;5089600;28;20099;-76
2021/12/20 13:22:37;;;;;;;6.95;2.80;;;;;;;;;;5088725;28;20040;-77
2021/12/20 13:25:04;;;;;;;6.10;2.30;;;;;;;;;;5089695;28;20071;-76
2021/12/20 13:27:31;;;;;;;7.20;2.17;;;;;;;;;;5090675;28;20036;-76
2021/12/20 13:29:57;;;;;;;5.85;2.70;;;;;;;;;;5089405;28;20410;-75
2021/12/20 13:32:23;;;;;;;6.05;2.50;;;;;;;;;;5089005;28;20051;-75
2021/12/20 13:34:49;;;;;;;5.15;1.95;;;;;;;;;;5089408;28;20051;-75
2021/12/20 13:37:15;;;;;;;5.45;2.10;;;;;;;;;;5088742;28;20048;-75
2021/12/20 13:39:52;;;;;;;4.68;1.90;;;;;;;;;;5090427;28;20044;-75
2021/12/20 13:42:18;;;;;;;5.50;2.58;;;;;;;;;;5089945;28;20044;-76
2021/12/20 13:44:44;;;;;;;6.18;2.10;;;;;;;;;;5088933;28;20186;-76
2021/12/20 13:47:16;;;;;;;8.48;2.17;;;;;;;;;;5089473;28;20156;-76
2021/12/20 13:49:43;;;;;;;6.20;2.60;;;;;;;;;;5090450;28;20040;-76
2021/12/20 13:52:10;;;;;;;5.97;1.90;;;;;;;;;;5090863;28;20044;-76
2021/12/20 13:54:37;;;;;;;7.65;2.03;;;;;;;;;;5090869;28;20050;-75
2021/12/20 13:57:20;;;;;;;6.82;2.17;;;;;;;;;;5089795;28;20059;-76
2021/12/20 13:59:55;;;;;;;5.47;2.13;;;;;;;;;;5090368;28;20513;-77
2021/12/20 14:02:26;;;;;;;4.68;1.80;;;;;;;;;;5090285;28;20512;-77
2021/12/20 14:04:58;;;;;;;5.18;2.00;;;;;;;;;;5089452;28;20048;-77
2021/12/20 14:07:25;;;;;;;5.88;2.05;;;;;;;;;;5072460;28;20039;-77
2021/12/20 14:10:12;;;;;;;4.55;2.30;;;;;;;;;;5072172;28;20402;-78
2021/12/20 14:12:42;;;;;;;4.93;1.85;;;;;;;;;;5066824;28;20054;-77
2021/12/20 14:15:08;;;;;;;5.28;1.95;;;;;;;;;;5072053;28;20063;-76
2021/12/20 14:17:53;;;;;;;5.05;1.85;;;;;;;;;;5089099;28;20530;-77
2021/12/20 14:20:20;;;;;;;3.88;1.63;;;;;;;;;;5090081;28;20090;-76
2021/12/20 14:23:00;;;;;;;5.18;1.80;;;;;;;;;;5090356;28;20572;-75
2021/12/20 14:25:31;;;;;;;4.25;1.80;;;;;;;;;;5089128;28;20389;-75
2021/12/20 14:28:01;;;;;;;3.42;1.67;;;;;;;;;;5088933;28;20044;-73
2021/12/20 14:30:27;;;;;;;4.30;1.67;;;;;;;;;;5089813;28;20517;-75
2021/12/20 14:32:54;;;;;;;6.13;1.70;;;;;;;;;;5089937;28;20078;-76
2021/12/20 14:35:32;;;;;;;3.83;1.67;;;;;;;;;;5090216;28;20052;-76
2021/12/20 14:37:58;;;;;;;3.42;1.50;;;;;;;;;;5088654;28;20133;-75
2021/12/20 14:40:43;;;;;;;4.28;1.85;;;;;;;;;;5089419;28;20059;-75
2021/12/20 14:43:13;;;;;;;5.57;1.73;;;;;;;;;;5089650;28;20048;-75
2021/12/20 14:45:40;;;;;;;3.60;1.50;;;;;;;;;;5089335;28;20036;-75
2021/12/20 14:48:16;;;;;;;4.18;1.65;;;;;;;;;;5089705;28;20525;-75
2021/12/20 14:50:46;;;;;;;3.88;1.50;;;;;;;;;;5088926;28;20040;-74
2021/12/20 14:53:13;;;;;;;3.72;1.52;;;;;;;;;;5088745;28;20134;-75
2021/12/20 14:55:39;;;;;;;3.88;1.40;;;;;;;;;;5088678;28;20135;-76
2021/12/20 14:58:05;;;;;;;4.82;1.95;;;;;;;;;;5088032;28;20055;-77
2021/12/20 15:00:32;;;;;;;4.28;1.45;;;;;;;;;;5089505;28;20570;-76
2021/12/20 15:02:57;;;;;;;5.30;1.80;;;;;;;;;;5088283;28;20094;-75
2021/12/20 15:05:24;;;;;;;3.70;1.58;;;;;;;;;;5089047;28;20044;-75
2021/12/20 15:07:50;;;;;;;4.93;1.83;;;;;;;;;;5081494;28;20164;-75
2021/12/20 15:10:17;;;;;;;5.18;1.70;;;;;;;;;;5089142;28;20131;-77